Time;durP1;ratioP1;P1;durP2;ratioP2;P2;SDS_P1;SDS_P2;PMS_P1;PMS_P2;Temp;Humidity;BMP_temperature;BMP_pressure;BME280_temperature;BME280_humidity;BME280_pressure;Samples;Min_cycle;Max_cycle;Signal;HPM_P1;HPM_P2
2022/10/31 00:01:28;;;;;;;15.43;9.53;;;;;;;-145.14;100.00;70583.66;5002771;28;20190;-74
2022/10/31 00:03:54;;;;;;;13.30;8.50;;;;;;;-145.14;100.00;70583.66;5001638;28;20275;-74
2022/10/31 00:06:20;;;;;;;12.80;8.60;;;;;;;-145.14;100.00;70583.66;5005232;28;20543;-74
2022/10/31 00:08:47;;;;;;;14.97;7.73;;;;;;;-145.14;100.00;70583.66;5003085;28;20436;-74
2022/10/31 00:11:12;;;;;;;12.50;8.23;;;;;;;-145.14;100.00;70583.66;5001082;28;20444;-74
2022/10/31 00:13:38;;;;;;;11.53;8.23;;;;;;;-145.14;100.00;70583.66;5001321;28;20447;-76
2022/10/31 00:16:03;;;;;;;17.60;8.50;;;;;;;-145.14;100.00;70583.66;4994832;28;20270;-74
2022/10/31 00:18:29;;;;;;;16.70;8.60;;;;;;;-145.14;100.00;70583.66;4997818;28;20667;-74
2022/10/31 00:21:02;;;;;;;13.20;8.23;;;;;;;-145.14;100.00;70583.66;4997243;28;20581;-74
2022/10/31 00:23:28;;;;;;;15.47;8.87;;;;;;;-145.14;100.00;70583.66;4995777;28;20192;-74
2022/10/31 00:25:54;;;;;;;14.23;7.63;;;;;;;-145.14;100.00;70583.66;4995753;28;20965;-74
2022/10/31 00:28:19;;;;;;;9.83;7.00;;;;;;;-145.14;100.00;70583.66;4993258;28;20689;-75
2022/10/31 00:30:44;;;;;;;12.07;6.87;;;;;;;-145.14;100.00;70583.66;4998079;28;20189;-73
2022/10/31 00:33:10;;;;;;;10.70;6.97;;;;;;;-145.14;100.00;70583.66;4997456;28;20186;-74
2022/10/31 00:35:35;;;;;;;10.67;6.67;;;;;;;-145.14;100.00;70583.66;4995438;28;20257;-73
2022/10/31 00:38:00;;;;;;;13.33;6.90;;;;;;;-145.14;100.00;70583.66;4994123;28;20217;-74
2022/10/31 00:40:26;;;;;;;12.03;7.00;;;;;;;-145.14;100.00;70583.66;4997060;28;20189;-73
2022/10/31 00:42:51;;;;;;;13.13;6.90;;;;;;;-145.14;100.00;70583.66;4997446;28;20637;-73
2022/10/31 00:45:17;;;;;;;10.47;6.10;;;;;;;-145.14;100.00;70583.66;4996156;28;20177;-74
2022/10/31 00:47:42;;;;;;;12.10;7.97;;;;;;;-145.14;100.00;70583.66;4994864;28;20213;-73
2022/10/31 00:50:08;;;;;;;14.30;7.33;;;;;;;-145.14;100.00;70583.66;4996347;28;20189;-74
2022/10/31 00:52:34;;;;;;;14.60;7.77;;;;;;;-145.14;100.00;70583.66;4998695;28;20235;-75
2022/10/31 00:54:59;;;;;;;13.20;6.87;;;;;;;-145.14;100.00;70583.66;4997699;28;21009;-73
2022/10/31 00:57:24;;;;;;;9.70;6.90;;;;;;;-145.14;100.00;70583.66;4998334;28;20210;-74
2022/10/31 00:59:50;;;;;;;15.50;8.80;;;;;;;-145.14;100.00;70583.66;4994913;28;20650;-74
2022/10/31 01:02:15;;;;;;;14.93;10.03;;;;;;;-145.14;100.00;70583.66;5000175;28;20185;-74
2022/10/31 01:04:41;;;;;;;12.10;8.50;;;;;;;-145.14;100.00;70583.66;4998990;28;20181;-75
2022/10/31 01:07:06;;;;;;;14.27;9.13;;;;;;;-145.14;100.00;70583.66;5000460;28;20213;-74
2022/10/31 01:09:32;;;;;;;12.03;8.43;;;;;;;-145.14;100.00;70583.66;4998033;28;20221;-74
2022/10/31 01:11:57;;;;;;;14.17;8.77;;;;;;;-145.14;100.00;70583.66;4998614;28;20462;-73
2022/10/31 01:14:23;;;;;;;12.83;8.40;;;;;;;-145.14;100.00;70583.66;5000826;28;20208;-73
2022/10/31 01:16:48;;;;;;;11.50;8.47;;;;;;;-145.14;100.00;70583.66;4996140;28;20224;-74
2022/10/31 01:19:13;;;;;;;11.70;7.70;;;;;;;-145.14;100.00;70583.66;4993396;28;21225;-74
2022/10/31 01:21:39;;;;;;;12.63;8.73;;;;;;;-145.14;100.00;70583.66;4994999;28;20202;-73
2022/10/31 01:24:04;;;;;;;10.57;7.77;;;;;;;-145.14;100.00;70583.66;4994047;28;20189;-74
2022/10/31 01:26:31;;;;;;;13.43;9.10;;;;;;;-145.14;100.00;70583.66;4993429;28;20284;-74
2022/10/31 01:29:05;;;;;;;15.93;9.83;;;;;;;-145.14;100.00;70583.66;4994575;28;20682;-73
2022/10/31 01:31:33;;;;;;;16.17;9.87;;;;;;;-145.14;100.00;70583.66;4994495;28;20501;-73
2022/10/31 01:33:59;;;;;;;11.53;9.00;;;;;;;-145.14;100.00;70583.66;4990441;28;20498;-73
2022/10/31 01:36:39;;;;;;;12.27;8.43;;;;;;;-145.14;100.00;70583.66;4991376;28;20551;-73
2022/10/31 01:39:07;;;;;;;14.13;9.13;;;;;;;-145.14;100.00;70583.66;4994239;28;20191;-72
2022/10/31 01:41:36;;;;;;;13.63;8.90;;;;;;;-145.14;100.00;70583.66;4995721;28;20443;-72
2022/10/31 01:44:32;;;;;;;11.67;8.27;;;;;;;-145.14;100.00;70583.66;4998188;28;20538;-72
2022/10/31 01:47:17;;;;;;;14.07;9.00;;;;;;;-145.14;100.00;70583.66;4988018;28;20991;-73
2022/10/31 01:49:48;;;;;;;11.90;8.23;;;;;;;-145.14;100.00;70583.66;4996029;28;20448;-73
2022/10/31 01:52:27;;;;;;;15.93;9.43;;;;;;;-145.14;100.00;70583.66;5012393;28;20506;-73
2022/10/31 01:55:08;;;;;;;14.03;8.80;;;;;;;-145.14;100.00;70583.66;4998209;28;20463;-73
2022/10/31 01:57:35;;;;;;;11.20;8.70;;;;;;;-145.14;100.00;70583.66;4994807;28;20454;-73
2022/10/31 02:00:06;;;;;;;14.00;8.40;;;;;;;-145.14;100.00;70583.66;4993273;28;20447;-72
2022/10/31 02:02:31;;;;;;;14.00;8.50;;;;;;;-145.14;100.00;70583.66;5003451;28;20514;-73
2022/10/31 02:05:00;;;;;;;13.80;8.53;;;;;;;-145.14;100.00;70583.66;4994683;28;20443;-72
2022/10/31 02:07:32;;;;;;;13.73;8.67;;;;;;;-145.14;100.00;70583.66;5002562;28;20220;-72
2022/10/31 02:09:59;;;;;;;14.63;8.60;;;;;;;-145.14;100.00;70583.66;4997306;28;20452;-72
2022/10/31 02:12:25;;;;;;;11.40;8.53;;;;;;;-145.14;100.00;70583.66;5000528;28;20543;-73
2022/10/31 02:14:50;;;;;;;10.70;7.83;;;;;;;-145.14;100.00;70583.66;4999556;28;20633;-73
2022/10/31 02:17:16;;;;;;;14.40;8.47;;;;;;;-145.14;100.00;70583.66;4995595;28;20562;-72
2022/10/31 02:19:56;;;;;;;15.67;8.30;;;;;;;-145.14;100.00;70583.66;5000363;28;20223;-72
2022/10/31 02:23:09;;;;;;;15.23;8.70;;;;;;;-145.14;100.00;70583.66;4991458;28;20193;-73
2022/10/31 02:25:58;;;;;;;12.17;7.77;;;;;;;-145.14;100.00;70583.66;4986995;28;20964;-72
2022/10/31 02:28:56;;;;;;;12.83;9.23;;;;;;;-145.14;100.00;70583.66;4991112;28;20574;-72
2022/10/31 02:31:47;;;;;;;17.73;9.43;;;;;;;-145.14;100.00;70583.66;4999156;28;20535;-73
2022/10/31 02:34:24;;;;;;;12.57;8.80;;;;;;;-145.14;100.00;70583.66;4997174;28;20447;-73
2022/10/31 02:36:58;;;;;;;14.17;9.47;;;;;;;-145.14;100.00;70583.66;4994878;28;20507;-73
2022/10/31 02:39:31;;;;;;;12.87;9.30;;;;;;;-145.14;100.00;70583.66;4997712;28;20439;-73
2022/10/31 02:42:27;;;;;;;15.03;9.33;;;;;;;-145.14;100.00;70583.66;4998283;28;20455;-73
2022/10/31 02:45:13;;;;;;;15.10;9.50;;;;;;;-145.14;100.00;70583.66;4996964;28;20439;-73
2022/10/31 02:47:41;;;;;;;12.27;9.40;;;;;;;-145.14;100.00;70583.66;4996103;28;20534;-73
2022/10/31 02:50:12;;;;;;;13.07;9.47;;;;;;;-145.14;100.00;70583.66;4999650;28;20444;-73
2022/10/31 02:52:38;;;;;;;14.00;11.00;;;;;;;-145.14;100.00;70583.66;5013910;28;20471;-73
2022/10/31 02:55:22;;;;;;;19.50;11.47;;;;;;;-145.14;100.00;70583.66;4992971;28;20447;-73
2022/10/31 02:57:47;;;;;;;19.20;11.57;;;;;;;-145.14;100.00;70583.66;4996610;28;20764;-73
2022/10/31 03:00:13;;;;;;;16.90;10.40;;;;;;;-145.14;100.00;70583.66;4999060;28;20454;-73
2022/10/31 03:03:03;;;;;;;19.30;11.10;;;;;;;-145.14;100.00;70583.66;5012276;28;20200;-73
2022/10/31 03:05:35;;;;;;;12.73;9.97;;;;;;;-145.14;100.00;70583.66;4998028;28;20276;-73
2022/10/31 03:08:13;;;;;;;14.63;10.73;;;;;;;-145.14;100.00;70583.66;4995078;28;20487;-73
2022/10/31 03:11:02;;;;;;;17.17;11.07;;;;;;;-145.14;100.00;70583.66;4996479;28;20447;-73
2022/10/31 03:13:50;;;;;;;15.27;11.30;;;;;;;-145.14;100.00;70583.66;4994656;28;20471;-73
2022/10/31 03:16:23;;;;;;;18.30;10.83;;;;;;;-145.14;100.00;70583.66;4998359;28;20498;-73
2022/10/31 03:18:59;;;;;;;18.97;12.20;;;;;;;-145.14;100.00;70583.66;4994126;28;20463;-73
2022/10/31 03:21:55;;;;;;;16.73;12.20;;;;;;;-145.14;100.00;70583.66;4993784;28;20444;-73
2022/10/31 03:24:25;;;;;;;13.90;11.90;;;;;;;-145.14;100.00;70583.66;4997436;28;20464;-73
2022/10/31 03:26:55;;;;;;;20.60;12.47;;;;;;;-145.14;100.00;70583.66;4991928;28;20475;-73
2022/10/31 03:29:25;;;;;;;16.30;12.07;;;;;;;-145.14;100.00;70583.66;4996536;28;20478;-73
2022/10/31 03:32:22;;;;;;;17.53;10.70;;;;;;;-145.14;100.00;70583.66;4998446;28;20452;-73
2022/10/31 03:34:50;;;;;;;13.57;10.60;;;;;;;-145.14;100.00;70583.66;4992078;28;20456;-73
2022/10/31 03:37:19;;;;;;;15.40;11.43;;;;;;;-145.14;100.00;70583.66;4995623;28;20483;-73
2022/10/31 03:39:47;;;;;;;16.70;11.10;;;;;;;-145.14;100.00;70583.66;4992379;28;20439;-73
2022/10/31 03:42:18;;;;;;;15.47;10.70;;;;;;;-145.14;100.00;70583.66;4989499;28;20447;-73
2022/10/31 03:44:48;;;;;;;18.80;11.80;;;;;;;-145.14;100.00;70583.66;4998948;28;20486;-73
2022/10/31 03:47:14;;;;;;;16.87;11.47;;;;;;;-145.14;100.00;70583.66;5000409;28;21507;-73
2022/10/31 03:49:39;;;;;;;14.77;11.40;;;;;;;-145.14;100.00;70583.66;4995509;28;20443;-72
2022/10/31 03:52:33;;;;;;;19.20;11.37;;;;;;;-145.14;100.00;70583.66;5001268;28;20468;-73
2022/10/31 03:55:16;;;;;;;16.97;11.13;;;;;;;-145.14;100.00;70583.66;4997101;28;20266;-73
2022/10/31 03:57:56;;;;;;;14.70;10.93;;;;;;;-145.14;100.00;70583.66;4998730;28;20835;-73
2022/10/31 04:00:22;;;;;;;20.50;11.67;;;;;;;-145.14;100.00;70583.66;5002088;28;21110;-73
2022/10/31 04:03:06;;;;;;;22.87;13.63;;;;;;;-145.14;100.00;70583.66;5014290;28;20471;-73
2022/10/31 04:05:32;;;;;;;15.80;11.70;;;;;;;-145.14;100.00;70583.66;5004357;28;20556;-73
2022/10/31 04:07:59;;;;;;;18.17;12.50;;;;;;;-145.14;100.00;70583.66;5001734;28;20481;-73
2022/10/31 04:10:26;;;;;;;16.47;12.77;;;;;;;-145.14;100.00;70583.66;5001791;28;20672;-73
2022/10/31 04:12:57;;;;;;;16.50;12.60;;;;;;;-145.14;100.00;70583.66;5004479;28;20560;-73
2022/10/31 04:15:24;;;;;;;18.77;12.03;;;;;;;-145.14;100.00;70583.66;5001865;28;20425;-73
2022/10/31 04:17:54;;;;;;;19.83;13.20;;;;;;;-145.14;100.00;70583.66;5001544;28;20580;-74
2022/10/31 04:20:29;;;;;;;18.07;13.10;;;;;;;-145.14;100.00;70583.66;5003549;28;20503;-74
2022/10/31 04:22:55;;;;;;;18.73;13.13;;;;;;;-145.14;100.00;70583.66;5013238;28;20451;-72
2022/10/31 04:25:20;;;;;;;18.60;12.67;;;;;;;-145.14;100.00;70583.66;4991930;28;20445;-71
2022/10/31 04:27:46;;;;;;;19.90;11.97;;;;;;;-145.14;100.00;70583.66;4995872;28;20231;-73
2022/10/31 04:30:11;;;;;;;18.50;12.27;;;;;;;-145.14;100.00;70583.66;5021323;22;20278;-77
2022/10/31 04:32:37;;;;;;;16.10;11.90;;;;;;;-145.14;100.00;70583.66;5045570;28;20271;-76
2022/10/31 04:35:02;;;;;;;20.30;13.83;;;;;;;-145.14;100.00;70583.66;5018898;28;20183;-76
2022/10/31 04:37:28;;;;;;;13.03;11.67;;;;;;;-145.14;100.00;70583.66;5021810;28;20180;-76
2022/10/31 04:39:53;;;;;;;17.87;12.13;;;;;;;-145.14;100.00;70583.66;5016732;28;20204;-79
2022/10/31 04:42:18;;;;;;;19.27;13.50;;;;;;;-145.14;100.00;70583.66;5024728;28;20201;-77
2022/10/31 04:44:44;;;;;;;16.80;12.27;;;;;;;-145.14;100.00;70583.66;5021508;28;20188;-77
2022/10/31 04:47:09;;;;;;;20.40;12.30;;;;;;;-145.14;100.00;70583.66;5017719;28;21410;-76
2022/10/31 04:49:35;;;;;;;24.47;13.27;;;;;;;-145.14;100.00;70583.66;5019910;28;20216;-77
2022/10/31 04:52:00;;;;;;;15.47;11.80;;;;;;;-145.14;100.00;70583.66;5024302;28;20211;-77
2022/10/31 04:54:25;;;;;;;18.17;13.07;;;;;;;-145.14;100.00;70583.66;5023642;28;20191;-77
2022/10/31 04:56:51;;;;;;;19.77;13.17;;;;;;;-145.14;100.00;70583.66;5015065;28;20188;-76
2022/10/31 04:59:17;;;;;;;20.67;11.40;;;;;;;-145.14;100.00;70583.66;5023801;28;20729;-76
2022/10/31 05:01:42;;;;;;;14.87;12.20;;;;;;;-145.14;100.00;70583.66;5027470;28;20274;-76
2022/10/31 05:04:07;;;;;;;14.57;11.00;;;;;;;-145.14;100.00;70583.66;5031060;28;20196;-76
2022/10/31 05:06:33;;;;;;;13.43;10.30;;;;;;;-145.14;100.00;70583.66;5024729;28;20587;-76
2022/10/31 05:08:58;;;;;;;14.17;10.80;;;;;;;-145.14;100.00;70583.66;5025086;28;20265;-76
2022/10/31 05:11:24;;;;;;;16.10;12.17;;;;;;;-145.14;100.00;70583.66;5027902;28;20823;-76
2022/10/31 05:13:49;;;;;;;16.50;12.13;;;;;;;-145.14;100.00;70583.66;5034175;28;20180;-76
2022/10/31 05:16:14;;;;;;;15.67;12.03;;;;;;;-145.14;100.00;70583.66;5026897;28;20212;-76
2022/10/31 05:18:40;;;;;;;16.60;11.97;;;;;;;-145.14;100.00;70583.66;5029495;28;20203;-76
2022/10/31 05:21:05;;;;;;;16.00;10.80;;;;;;;-145.14;100.00;70583.66;5042051;28;20188;-77
2022/10/31 05:23:31;;;;;;;14.53;10.63;;;;;;;-145.14;100.00;70583.66;5029371;28;20184;-76
2022/10/31 05:25:56;;;;;;;17.60;12.73;;;;;;;-145.14;100.00;70583.66;5034362;28;21028;-76
2022/10/31 05:28:21;;;;;;;14.57;11.77;;;;;;;-145.14;100.00;70583.66;5022817;28;20235;-76
2022/10/31 05:30:47;;;;;;;16.87;12.87;;;;;;;-145.14;100.00;70583.66;5020122;28;20207;-76
2022/10/31 05:33:12;;;;;;;14.70;11.23;;;;;;;-145.14;100.00;70583.66;5021083;28;20902;-76
2022/10/31 05:35:38;;;;;;;14.13;10.50;;;;;;;-145.14;100.00;70583.66;5032158;28;20202;-77
2022/10/31 05:38:03;;;;;;;17.70;11.83;;;;;;;-145.14;100.00;70583.66;5031597;28;20534;-76
2022/10/31 05:40:29;;;;;;;16.00;12.90;;;;;;;-145.14;100.00;70583.66;5033684;28;20236;-76
2022/10/31 05:42:55;;;;;;;13.17;11.60;;;;;;;-145.14;100.00;70583.66;5031480;28;20279;-76
2022/10/31 05:45:21;;;;;;;15.33;11.50;;;;;;;-145.14;100.00;70583.66;5033819;28;20618;-76
2022/10/31 05:47:56;;;;;;;18.10;12.63;;;;;;;-145.14;100.00;70583.66;5027027;28;20946;-77
2022/10/31 05:50:22;;;;;;;15.83;10.73;;;;;;;-145.14;100.00;70583.66;5033735;28;20965;-77
2022/10/31 05:52:54;;;;;;;15.17;12.10;;;;;;;-145.14;100.00;70583.66;5024389;28;20983;-77
2022/10/31 05:55:20;;;;;;;15.90;11.87;;;;;;;-145.14;100.00;70583.66;5027307;28;20450;-77
2022/10/31 05:57:45;;;;;;;16.20;11.93;;;;;;;-145.14;100.00;70583.66;5020972;28;20902;-76
2022/10/31 06:00:11;;;;;;;15.87;11.37;;;;;;;-145.14;100.00;70583.66;5022710;28;20349;-76
2022/10/31 06:02:37;;;;;;;15.40;11.53;;;;;;;-145.14;100.00;70583.66;5024976;28;20275;-77
2022/10/31 06:05:02;;;;;;;16.20;12.33;;;;;;;-145.14;100.00;70583.66;5025453;28;20452;-77
2022/10/31 06:07:33;;;;;;;18.80;12.80;;;;;;;-145.14;100.00;70583.66;5027737;28;20187;-77
2022/10/31 06:09:58;;;;;;;17.10;12.60;;;;;;;-145.14;100.00;70583.66;5030727;28;20208;-77
2022/10/31 06:12:23;;;;;;;16.97;12.70;;;;;;;-145.14;100.00;70583.66;5033939;28;20957;-77
2022/10/31 06:14:49;;;;;;;15.57;12.67;;;;;;;-145.14;100.00;70583.66;5030324;28;20683;-77
2022/10/31 06:17:14;;;;;;;14.93;11.10;;;;;;;-145.14;100.00;70583.66;5037606;28;20188;-76
2022/10/31 06:19:40;;;;;;;16.07;11.97;;;;;;;-145.14;100.00;70583.66;5049852;28;20196;-76
2022/10/31 06:22:05;;;;;;;14.80;11.50;;;;;;;-145.14;100.00;70583.66;5015620;28;20193;-76
2022/10/31 06:24:31;;;;;;;13.40;10.53;;;;;;;-145.14;100.00;70583.66;5025769;28;20187;-76
2022/10/31 06:26:56;;;;;;;14.13;11.20;;;;;;;-145.14;100.00;70583.66;5022987;28;20250;-77
2022/10/31 06:29:22;;;;;;;12.17;10.40;;;;;;;-145.14;100.00;70583.66;5022894;28;20221;-77
2022/10/31 06:31:47;;;;;;;12.43;10.60;;;;;;;-145.14;100.00;70583.66;5025952;28;20196;-76
2022/10/31 06:34:12;;;;;;;15.00;10.40;;;;;;;-145.14;100.00;70583.66;5021481;28;20204;-77
2022/10/31 06:36:38;;;;;;;13.23;11.13;;;;;;;-145.14;100.00;70583.66;5029861;28;20669;-79
2022/10/31 06:39:03;;;;;;;13.53;10.50;;;;;;;-145.14;100.00;70583.66;5032204;28;20231;-77
2022/10/31 06:41:29;;;;;;;14.30;11.27;;;;;;;-145.14;100.00;70583.66;5033956;28;20189;-77
2022/10/31 06:43:54;;;;;;;12.17;10.23;;;;;;;-145.14;100.00;70583.66;5029497;28;20191;-76
2022/10/31 06:46:19;;;;;;;19.03;9.90;;;;;;;-145.14;100.00;70583.66;5026360;28;20188;-77
2022/10/31 06:48:45;;;;;;;13.10;9.80;;;;;;;-145.14;100.00;70583.66;5030219;28;21282;-76
2022/10/31 06:51:10;;;;;;;11.63;9.90;;;;;;;-145.14;100.00;70583.66;5025113;28;20185;-76
2022/10/31 06:53:35;;;;;;;14.10;10.37;;;;;;;-145.14;100.00;70583.66;5032091;28;20191;-76
2022/10/31 06:56:01;;;;;;;13.40;10.70;;;;;;;-145.14;100.00;70583.66;5023166;28;20195;-77
2022/10/31 06:58:26;;;;;;;11.97;10.40;;;;;;;-145.14;100.00;70583.66;5032921;28;20662;-77
2022/10/31 07:00:52;;;;;;;13.90;10.90;;;;;;;-145.14;100.00;70583.66;5026895;28;20649;-77
2022/10/31 07:03:17;;;;;;;15.10;11.03;;;;;;;-145.14;100.00;70583.66;5031186;28;20215;-76
2022/10/31 07:05:43;;;;;;;13.67;11.43;;;;;;;-145.14;100.00;70583.66;5036101;28;20188;-77
2022/10/31 07:08:12;;;;;;;15.80;11.90;;;;;;;-145.14;100.00;70583.66;5035327;28;20210;-77
2022/10/31 07:10:39;;;;;;;14.47;11.00;;;;;;;-145.14;100.00;70583.66;5031022;28;20485;-77
2022/10/31 07:13:08;;;;;;;11.63;10.40;;;;;;;-145.14;100.00;70583.66;5052153;28;20447;-77
2022/10/31 07:15:36;;;;;;;12.00;10.70;;;;;;;-145.14;100.00;70583.66;5036374;28;20508;-77
2022/10/31 07:18:03;;;;;;;14.50;11.37;;;;;;;-145.14;100.00;70583.66;5037275;28;20422;-77
2022/10/31 07:20:29;;;;;;;15.13;10.97;;;;;;;-145.14;100.00;70583.66;5042930;28;20462;-76
2022/10/31 07:22:55;;;;;;;13.83;10.60;;;;;;;-145.14;100.00;70583.66;5036192;28;20492;-76
2022/10/31 07:25:21;;;;;;;15.13;9.70;;;;;;;-145.14;100.00;70583.66;5035114;28;20459;-77
2022/10/31 07:27:46;;;;;;;13.47;10.20;;;;;;;-145.14;100.00;70583.66;5037118;28;20207;-78
2022/10/31 07:30:13;;;;;;;11.70;9.90;;;;;;;-145.14;100.00;70583.66;5037236;28;20935;-77
2022/10/31 07:32:44;;;;;;;13.53;9.60;;;;;;;-145.14;100.00;70583.66;5038757;28;20223;-77
2022/10/31 07:35:12;;;;;;;11.30;8.80;;;;;;;-145.14;100.00;70583.66;5032392;28;20455;-77
2022/10/31 07:37:38;;;;;;;11.07;9.30;;;;;;;-145.14;100.00;70583.66;5029139;28;20530;-77
2022/10/31 07:40:05;;;;;;;11.03;8.10;;;;;;;-145.14;100.00;70583.66;5025874;28;20828;-78
2022/10/31 07:42:43;;;;;;;7.53;6.40;;;;;;;-145.14;100.00;70583.66;5022082;28;20504;-76
2022/10/31 07:45:11;;;;;;;6.93;5.80;;;;;;;-145.14;100.00;70583.66;5019884;28;20443;-76
2022/10/31 07:47:50;;;;;;;8.00;7.10;;;;;;;-145.14;100.00;70583.66;5029331;28;20442;-76
2022/10/31 07:50:27;;;;;;;9.27;6.50;;;;;;;-145.14;100.00;70583.66;5024405;28;20954;-77
2022/10/31 07:53:05;;;;;;;9.03;7.50;;;;;;;-145.14;100.00;70583.66;5033340;28;20443;-76
2022/10/31 07:55:31;;;;;;;8.77;7.10;;;;;;;-145.14;100.00;70583.66;5018667;28;20543;-77
2022/10/31 07:57:59;;;;;;;12.30;8.60;;;;;;;-145.14;100.00;70583.66;5030801;28;20457;-76
2022/10/31 08:00:25;;;;;;;10.67;8.60;;;;;;;-145.14;100.00;70583.66;5020373;28;20467;-77
2022/10/31 08:03:03;;;;;;;10.00;8.67;;;;;;;-145.14;100.00;70583.66;5021379;28;20438;-76
2022/10/31 08:05:29;;;;;;;11.00;9.80;;;;;;;-145.14;100.00;70583.66;5024902;28;20946;-77
2022/10/31 08:07:55;;;;;;;10.83;9.73;;;;;;;-145.14;100.00;70583.66;5027555;28;21040;-76
2022/10/31 08:10:21;;;;;;;11.23;9.80;;;;;;;-145.14;100.00;70583.66;5021366;28;20466;-76
2022/10/31 08:12:46;;;;;;;10.53;9.47;;;;;;;-145.14;100.00;70583.66;5024388;28;20439;-77
2022/10/31 08:15:12;;;;;;;13.07;10.53;;;;;;;-145.14;100.00;70583.66;5029944;28;20823;-77
2022/10/31 08:17:39;;;;;;;13.53;11.10;;;;;;;-145.14;100.00;70583.66;5022083;28;20189;-76
2022/10/31 08:20:15;;;;;;;;;;;;;;;;;;;;;
2022/10/31 08:22:41;;;;;;;12.43;10.40;;;;;;;-145.14;100.00;70583.66;5031340;28;20845;-76
2022/10/31 08:25:07;;;;;;;17.93;11.43;;;;;;;-145.14;100.00;70583.66;5022929;28;20457;-76
2022/10/31 08:27:32;;;;;;;12.80;10.47;;;;;;;-145.14;100.00;70583.66;5026486;28;20192;-78
2022/10/31 08:29:58;;;;;;;15.83;11.50;;;;;;;-145.14;100.00;70583.66;5027119;28;20231;-76
2022/10/31 08:32:24;;;;;;;14.33;10.80;;;;;;;-145.14;100.00;70583.66;5040745;28;21013;-76
2022/10/31 08:34:49;;;;;;;12.07;10.73;;;;;;;-145.14;100.00;70583.66;5028779;28;20246;-77
2022/10/31 08:37:19;;;;;;;13.50;11.57;;;;;;;-145.14;100.00;70583.66;5014721;28;20206;-76
2022/10/31 08:39:46;;;;;;;13.00;11.70;;;;;;;-145.14;100.00;70583.66;5019758;28;20205;-77
2022/10/31 08:42:11;;;;;;;16.80;13.67;;;;;;;-145.14;100.00;70583.66;5030892;28;20448;-76
2022/10/31 08:44:36;;;;;;;13.60;11.60;;;;;;;-145.14;100.00;70583.66;5029593;28;20431;-76
2022/10/31 08:47:02;;;;;;;15.03;12.20;;;;;;;-145.14;100.00;70583.66;5013806;28;20385;-76
2022/10/31 08:49:27;;;;;;;12.73;11.30;;;;;;;-145.14;100.00;70583.66;5028066;28;22487;-77
2022/10/31 08:51:53;;;;;;;14.37;12.07;;;;;;;-145.14;100.00;70583.66;5013629;28;20198;-76
2022/10/31 08:54:18;;;;;;;13.13;10.43;;;;;;;-145.14;100.00;70583.66;5032634;28;20222;-76
2022/10/31 08:56:44;;;;;;;13.47;11.90;;;;;;;-145.14;100.00;70583.66;5036446;28;20652;-76
2022/10/31 08:59:09;;;;;;;12.17;10.97;;;;;;;-145.14;100.00;70583.66;5019041;28;20206;-76
2022/10/31 09:01:34;;;;;;;13.80;11.20;;;;;;;-145.14;100.00;70583.66;5032322;28;20267;-77
2022/10/31 09:04:00;;;;;;;13.10;11.00;;;;;;;-145.14;100.00;70583.66;5017965;28;20238;-76
2022/10/31 09:06:25;;;;;;;13.57;10.87;;;;;;;-145.14;100.00;70583.66;5032051;28;20683;-78
2022/10/31 09:08:50;;;;;;;15.00;11.03;;;;;;;-145.14;100.00;70583.66;5027542;28;20212;-76
2022/10/31 09:11:16;;;;;;;13.40;11.03;;;;;;;-145.14;100.00;70583.66;5038632;28;20608;-77
2022/10/31 09:13:41;;;;;;;13.87;11.37;;;;;;;-145.14;100.00;70583.66;5046048;28;20621;-77
2022/10/31 09:16:07;;;;;;;12.87;10.50;;;;;;;-145.14;100.00;70583.66;5034820;28;20183;-76
2022/10/31 09:18:32;;;;;;;12.50;11.20;;;;;;;-145.14;100.00;70583.66;5034460;28;20180;-77
2022/10/31 09:20:59;;;;;;;12.23;10.53;;;;;;;-145.14;100.00;70583.66;5035095;28;20199;-77
2022/10/31 09:23:25;;;;;;;17.17;11.30;;;;;;;-145.14;100.00;70583.66;5021783;28;20188;-80
2022/10/31 09:25:55;;;;;;;13.90;10.60;;;;;;;-145.14;100.00;70583.66;5013093;28;21509;-78
2022/10/31 09:28:23;;;;;;;13.00;10.33;;;;;;;-145.14;100.00;70583.66;5028459;28;20201;-79
2022/10/31 09:30:51;;;;;;;16.73;11.90;;;;;;;-145.14;100.00;70583.66;5025768;28;20446;-77
2022/10/31 09:33:16;;;;;;;14.63;11.13;;;;;;;-145.14;100.00;70583.66;5024914;28;21090;-76
2022/10/31 09:35:42;;;;;;;15.13;10.60;;;;;;;-145.14;100.00;70583.66;5028083;28;20442;-86
2022/10/31 09:38:14;;;;;;;13.93;10.80;;;;;;;-145.14;100.00;70583.66;5028204;28;20431;-77
2022/10/31 09:40:43;;;;;;;12.27;10.60;;;;;;;-145.14;100.00;70583.66;5030233;28;20264;-77
2022/10/31 09:44:10;;;;;;;12.23;9.57;;;;;;;-145.14;100.00;70583.66;5028170;28;20438;-76
2022/10/31 09:46:47;;;;;;;11.07;9.87;;;;;;;-145.14;100.00;70583.66;4963411;28;22329;-77
2022/10/31 09:49:49;;;;;;;13.57;10.40;;;;;;;-145.14;100.00;70583.66;4961695;28;20485;-77
2022/10/31 09:52:20;;;;;;;14.53;10.60;;;;;;;-145.14;100.00;70583.66;5022882;28;20453;-81
2022/10/31 09:55:04;;;;;;;12.07;10.10;;;;;;;-145.14;100.00;70583.66;5026120;28;20712;-78
2022/10/31 09:57:34;;;;;;;14.00;11.60;;;;;;;-145.14;100.00;70583.66;5025185;28;21086;-80
2022/10/31 10:00:00;;;;;;;13.13;10.60;;;;;;;-145.14;100.00;70583.66;5020692;28;20462;-78
2022/10/31 10:02:36;;;;;;;12.73;10.50;;;;;;;-145.14;100.00;70583.66;5027771;28;20446;-84
2022/10/31 10:05:04;;;;;;;16.20;12.03;;;;;;;-145.14;100.00;70583.66;5027134;28;20446;-78
2022/10/31 10:07:32;;;;;;;15.57;10.53;;;;;;;-145.14;100.00;70583.66;5032515;28;20465;-80
2022/10/31 10:10:02;;;;;;;14.10;10.67;;;;;;;-145.14;100.00;70583.66;5037033;28;20850;-77
2022/10/31 10:12:47;;;;;;;15.13;10.40;;;;;;;-145.14;100.00;70583.66;5028690;28;20522;-79
2022/10/31 10:15:25;;;;;;;16.13;12.43;;;;;;;-145.14;100.00;70583.66;5026071;28;20565;-80
2022/10/31 10:18:00;;;;;;;16.50;11.67;;;;;;;-145.14;100.00;70583.66;5021623;28;20441;-81
2022/10/31 10:20:42;;;;;;;12.63;9.93;;;;;;;-145.14;100.00;70583.66;5025170;28;20512;-80
2022/10/31 10:23:34;;;;;;;13.20;10.90;;;;;;;-145.14;100.00;70583.66;5024682;28;20466;-78
2022/10/31 10:26:12;;;;;;;12.67;9.77;;;;;;;-145.14;100.00;70583.66;5012270;28;20457;-79
2022/10/31 10:28:41;;;;;;;13.00;8.87;;;;;;;-145.14;100.00;70583.66;5022091;28;20516;-79
2022/10/31 10:31:32;;;;;;;12.63;9.87;;;;;;;-145.14;100.00;70583.66;5030383;28;21361;-80
2022/10/31 10:34:19;;;;;;;13.07;9.30;;;;;;;-145.14;100.00;70583.66;5024803;28;20529;-83
2022/10/31 10:37:00;;;;;;;18.30;9.30;;;;;;;-145.14;100.00;70583.66;5019794;28;20501;-79
2022/10/31 10:39:41;;;;;;;12.50;9.60;;;;;;;-145.14;100.00;70583.66;5028961;28;20450;-79
2022/10/31 10:47:51;;;;;;;10.77;8.73;;;;;;;-145.14;100.00;70583.66;5023615;28;20941;-78
2022/10/31 10:50:27;;;;;;;9.80;7.73;;;;;;;-145.14;100.00;70583.66;5028516;28;20825;-79
2022/10/31 10:53:37;;;;;;;11.07;8.87;;;;;;;-145.14;100.00;70583.66;5038546;28;20912;-77
2022/10/31 10:56:18;;;;;;;10.70;8.10;;;;;;;-145.14;100.00;70583.66;5015559;28;20975;-77
2022/10/31 10:58:44;;;;;;;11.47;8.17;;;;;;;-145.14;100.00;70583.66;5026541;28;20462;-77
2022/10/31 11:01:13;;;;;;;10.30;7.50;;;;;;;-145.14;100.00;70583.66;5049550;28;20441;-77
2022/10/31 11:03:39;;;;;;;13.03;7.30;;;;;;;-145.14;100.00;70583.66;5030294;28;20474;-77
2022/10/31 11:06:16;;;;;;;13.17;7.30;;;;;;;-145.14;100.00;70583.66;5036722;28;20422;-77
2022/10/31 11:08:41;;;;;;;13.87;7.57;;;;;;;-145.14;100.00;70583.66;5021137;28;20469;-77
2022/10/31 11:11:16;;;;;;;9.90;7.03;;;;;;;-145.14;100.00;70583.66;5028808;28;20436;-78
2022/10/31 11:13:44;;;;;;;8.17;6.37;;;;;;;-145.14;100.00;70583.66;5035883;28;20180;-76
2022/10/31 11:16:27;;;;;;;9.27;6.97;;;;;;;-145.14;100.00;70583.66;5026892;28;20438;-76
2022/10/31 11:18:54;;;;;;;9.83;7.83;;;;;;;-145.14;100.00;70583.66;5019935;28;20478;-77